Portada
METAR-TAF:

METAR-TAF

Aeroports :

Dumaguete, Filipines

latitud: 09-20-01N, longitud: 123-18-02E, altitud: 5 m

Observació

L'informe es va fer fa 2 hores i 17 minuts, a les 09:00 UTC
Vent 4 kt del Sud-Oest
Temperatura 32°C
Humitat 59%
Pressió 1009 hPa
Visibilitat: 6000 m
Escasses núvols a una alçada de 1500 ft
Cel ennuvolat a una alçada de 7000 ft

METAR: RPVD 180900Z 22004KT 6000 FEW015 BKN070 32/23 Q1009 RMK A2980

Hora: 19:17 (11:17 UTC)

Pronòstic

L'informe es va fer fa 6 hores i 17 minuts, a les 05:00 UTC
Pronòstic vàlid del 18 a les 06 UTC al 19 a les 06 UTC
Vent 10 kt del Sud-Oest
Visibilitat 10 km o més
Escasses núvols a una alçada de 1500 ft
Núvols disperses a una alçada de 22000 ft
Temporalment
l' 18 a les 06 UTC al 18 a les 12 UTC
Vent 10 kt del Oest
Escasses núvols a una alçada de 1500 ft
Cel ennuvolat a una alçada de 7000 ft

TAF: RPVD 180500Z 1806/1906 22010KT 9999 FEW015 SCT220 TEMPO 1806/1812 27010KT FEW015 BKN070

Observacions i pronòstics meteorològics de més de 4000 aeroports (METAR i TAF).

Les estacions disponibles són els punts grocs i vermells al mapa.

Posi el ratolí al punt desitjat per veure el nom de l'estació.

Feu clic per veure les observacions i els pronòstics meteorològics.

Per canviar el mapa: feu clic els botons verds amb una creu de color negre per apropar; al botó verd amb un guió per allunyar la imatge; o en les fletxes verdes per a mapes adjacents.


METAR-TAF: